createdAt,value
2023-04-20T00:02:08.217Z,98382.20
2023-04-20T00:05:11.267Z,98379.77
2023-04-20T00:08:12.906Z,98378.98
2023-04-20T00:11:14.653Z,98380.70
2023-04-20T00:14:16.271Z,98384.23
2023-04-20T00:17:17.911Z,98382.27
2023-04-20T00:20:19.494Z,98378.75
2023-04-20T00:23:21.094Z,98377.49
2023-04-20T00:26:22.709Z,98373.65
2023-04-20T00:29:25.069Z,98376.48
2023-04-20T00:32:27.805Z,98367.54
2023-04-20T00:35:29.649Z,98370.51
2023-04-20T00:38:31.246Z,98369.80
2023-04-20T00:41:34.352Z,98370.60
2023-04-20T00:44:36.051Z,98370.44
2023-04-20T00:47:37.971Z,98370.36
2023-04-20T00:50:40.517Z,98365.48
2023-04-20T00:53:42.293Z,98366.21
2023-04-20T00:56:44.166Z,98362.77
2023-04-20T00:59:46.001Z,98365.89
2023-04-20T01:02:49.061Z,98363.22
2023-04-20T01:05:51.162Z,98367.45
2023-04-20T01:08:53.100Z,98358.77
2023-04-20T01:11:54.780Z,98357.27
2023-04-20T01:14:56.435Z,98354.45
2023-04-20T01:17:58.168Z,98351.02
2023-04-20T01:20:59.813Z,98345.61
2023-04-20T01:24:02.784Z,98342.23
2023-04-20T01:27:07.406Z,98344.89
2023-04-20T01:30:10.553Z,98348.27
2023-04-20T01:33:12.488Z,98351.17
2023-04-20T01:36:14.276Z,98350.94
2023-04-20T01:39:16.965Z,98352.73
2023-04-20T01:42:18.888Z,98354.38
2023-04-20T01:45:20.622Z,98352.04
2023-04-20T01:48:22.252Z,98352.42
2023-04-20T01:51:23.891Z,98353.91
2023-04-20T01:54:25.543Z,98354.87
2023-04-20T01:57:27.134Z,98359.17
2023-04-20T02:00:28.798Z,98361.60
2023-04-20T02:03:30.616Z,98364.10
2023-04-20T02:06:32.605Z,98363.71
2023-04-20T02:09:35.054Z,98365.82
2023-04-20T02:12:37.050Z,98364.41
2023-04-20T02:15:39.143Z,98367.55
2023-04-20T02:18:40.837Z,98364.88
2023-04-20T02:21:42.658Z,98367.23
2023-04-20T02:24:44.394Z,98364.50
2023-04-20T02:27:46.025Z,98364.73
2023-04-20T02:30:47.656Z,98360.65
2023-04-20T02:33:49.343Z,98361.05
2023-04-20T02:36:50.972Z,98362.45
2023-04-20T02:39:52.607Z,98362.98
2023-04-20T02:42:54.260Z,98363.30
2023-04-20T02:45:55.915Z,98363.78
2023-04-20T02:48:57.932Z,98366.77
2023-04-20T02:52:00.071Z,98362.36
2023-04-20T02:55:02.174Z,98362.73
2023-04-20T02:58:03.914Z,98363.30
2023-04-20T03:01:25.869Z,98362.83
2023-04-20T03:04:34.298Z,98357.56
2023-04-20T03:07:56.299Z,98355.61
2023-04-20T03:10:59.963Z,98356.55
2023-04-20T03:14:01.963Z,98363.21
2023-04-20T03:17:03.838Z,98364.93
2023-04-20T03:20:08.606Z,98366.89
2023-04-20T03:23:10.582Z,98365.08
2023-04-20T03:26:12.947Z,98370.95
2023-04-20T03:29:20.784Z,98373.87
2023-04-20T03:32:22.583Z,98377.15
2023-04-20T03:35:24.616Z,98375.26
2023-04-20T03:38:26.306Z,98375.34
2023-04-20T03:41:28.223Z,98381.69
2023-04-20T03:44:30.136Z,98386.94
2023-04-20T03:47:31.869Z,98393.05
2023-04-20T03:50:33.744Z,98386.85
2023-04-20T03:53:35.975Z,98385.76
2023-04-20T03:56:38.789Z,98384.67
2023-04-20T03:59:40.523Z,98388.20
2023-04-20T04:02:43.208Z,98384.04
2023-04-20T04:05:45.074Z,98388.19
2023-04-20T04:08:46.717Z,98389.20
2023-04-20T04:11:48.470Z,98388.41
2023-04-20T04:14:50.274Z,98390.21
2023-04-20T04:17:55.651Z,98393.12
2023-04-20T04:20:58.276Z,98389.35
2023-04-20T04:24:00.153Z,98384.57
2023-04-20T04:27:39.232Z,98389.27
2023-04-20T04:30:41.493Z,98389.68
2023-04-20T04:33:47.439Z,98391.10
2023-04-20T04:36:58.566Z,98390.41
2023-04-20T04:40:08.432Z,98397.62
2023-04-20T04:43:10.473Z,98396.52
2023-04-20T04:46:14.088Z,98398.48
2023-04-20T04:49:16.289Z,98402.90
2023-04-20T04:52:18.159Z,98407.59
2023-04-20T04:55:20.085Z,98413.08
2023-04-20T04:58:21.866Z,98410.12
2023-04-20T05:01:23.576Z,98412.24
2023-04-20T05:04:25.477Z,98407.17
2023-04-20T05:07:27.290Z,98409.09
2023-04-20T05:10:29.002Z,98405.79
2023-04-20T05:13:33.161Z,98406.75
2023-04-20T05:16:34.897Z,98407.48
2023-04-20T05:19:36.591Z,98407.48
2023-04-20T05:22:38.208Z,98411.34
2023-04-20T05:25:39.991Z,98412.06
2023-04-20T05:28:41.601Z,98410.42
2023-04-20T05:31:44.360Z,98414.41
2023-04-20T05:34:46.000Z,98422.33
2023-04-20T05:37:48.029Z,98419.98
2023-04-20T05:40:50.634Z,98421.26
2023-04-20T05:43:56.281Z,98422.19
2023-04-20T05:46:57.885Z,98419.85
2023-04-20T05:49:59.589Z,98427.65
2023-04-20T05:53:01.166Z,98428.21
2023-04-20T05:56:03.156Z,98430.52
2023-04-20T05:59:05.687Z,98432.73
2023-04-20T06:02:07.258Z,98436.97
2023-04-20T06:05:09.861Z,98439.42
2023-04-20T06:08:12.101Z,98438.50
2023-04-20T06:11:13.706Z,98444.56
2023-04-20T06:14:15.353Z,98444.90
2023-04-20T06:17:17.056Z,98447.41
2023-04-20T06:20:19.802Z,98450.95
2023-04-20T06:23:21.402Z,98449.93
2023-04-20T06:26:23.044Z,98453.14
2023-04-20T06:29:24.646Z,98457.93
2023-04-20T06:32:26.827Z,98463.12
2023-04-20T06:35:28.609Z,98460.14
2023-04-20T06:38:30.337Z,98455.84
2023-04-20T06:41:31.963Z,98458.60
2023-04-20T06:44:36.668Z,98454.39
2023-04-20T06:47:38.737Z,98453.36
2023-04-20T06:50:47.962Z,98448.73
2023-04-20T06:53:49.550Z,98453.52
2023-04-20T06:56:51.116Z,98458.63
2023-04-20T06:59:53.207Z,98457.52
2023-04-20T07:02:54.996Z,98455.70
2023-04-20T07:05:56.707Z,98456.48
2023-04-20T07:08:58.430Z,98461.58
2023-04-20T07:12:00.351Z,98456.46
2023-04-20T07:15:06.995Z,98460.95
2023-04-20T07:18:08.718Z,98461.50
2023-04-20T07:21:10.451Z,98459.24
2023-04-20T07:24:12.344Z,98459.98
2023-04-20T07:27:14.054Z,98457.31
2023-04-20T07:30:17.510Z,98450.42
2023-04-20T07:33:20.508Z,98445.65
2023-04-20T07:36:22.564Z,98447.00
2023-04-20T07:39:26.674Z,98449.40
2023-04-20T07:42:28.590Z,98455.77
2023-04-20T07:45:30.267Z,98458.84
2023-04-20T07:48:34.567Z,98461.89
2023-04-20T07:51:36.540Z,98459.96
2023-04-20T07:54:38.583Z,98458.08
2023-04-20T07:57:41.035Z,98460.89
2023-04-20T08:00:45.077Z,98459.80
2023-04-20T08:03:46.816Z,98460.11
2023-04-20T08:06:48.672Z,98463.30
2023-04-20T08:09:50.432Z,98467.95
2023-04-20T08:12:52.942Z,98467.77
2023-04-20T08:15:54.733Z,98469.05
2023-04-20T08:18:56.396Z,98467.53
2023-04-20T08:22:00.110Z,98466.44
2023-04-20T08:25:03.194Z,98471.02
2023-04-20T08:28:08.649Z,98475.52
2023-04-20T08:31:13.157Z,98474.41
2023-04-20T08:34:15.357Z,98475.71
2023-04-20T08:37:17.016Z,98474.80
2023-04-20T08:40:19.548Z,98472.14
2023-04-20T08:43:22.107Z,98472.92
2023-04-20T08:46:24.378Z,98468.11
2023-04-20T08:49:29.330Z,98469.51
2023-04-20T08:52:32.262Z,98465.70
2023-04-20T08:55:33.928Z,98465.84
2023-04-20T08:58:37.963Z,98470.34
2023-04-20T09:01:41.394Z,98467.73
2023-04-20T09:04:43.302Z,98472.61
2023-04-20T09:07:52.766Z,98471.02
2023-04-20T09:10:54.593Z,98471.48
2023-04-20T09:14:06.024Z,98469.11
2023-04-20T09:17:07.723Z,98469.16
2023-04-20T09:20:10.683Z,98470.95
2023-04-20T09:23:17.716Z,98468.38
2023-04-20T09:26:19.639Z,98468.95
2023-04-20T09:29:23.502Z,98472.33
2023-04-20T09:32:26.088Z,98471.69
2023-04-20T09:35:27.771Z,98472.97
2023-04-20T09:38:30.521Z,98473.04
2023-04-20T09:41:32.614Z,98473.83
2023-04-20T09:44:38.132Z,98473.08
2023-04-20T09:47:42.349Z,98471.77
2023-04-20T09:50:50.038Z,98464.33
2023-04-20T09:53:58.555Z,98459.02
2023-04-20T09:57:01.148Z,98458.50
2023-04-20T10:00:06.430Z,98460.97
2023-04-20T10:03:09.931Z,98454.23
2023-04-20T10:06:23.614Z,98452.14
2023-04-20T10:09:25.741Z,98452.57
2023-04-20T10:12:27.696Z,98448.79
2023-04-20T10:15:40.118Z,98453.04
2023-04-20T10:18:42.276Z,98448.79
2023-04-20T10:21:49.163Z,98446.30
2023-04-20T10:24:50.985Z,98438.52
2023-04-20T10:28:03.981Z,98432.84
2023-04-20T10:31:12.285Z,98431.48
2023-04-20T10:34:14.135Z,98434.42
2023-04-20T10:37:15.878Z,98432.44
2023-04-20T10:40:26.526Z,98436.39
2023-04-20T10:43:29.243Z,98437.34
2023-04-20T10:46:31.204Z,98438.62
2023-04-20T10:49:33.051Z,98434.95
2023-04-20T10:52:36.773Z,98435.10
2023-04-20T10:55:38.549Z,98435.16
2023-04-20T10:58:41.046Z,98427.29
2023-04-20T11:01:47.007Z,98425.51
2023-04-20T11:04:48.941Z,98422.77
2023-04-20T11:07:53.037Z,98424.40
2023-04-20T11:10:54.836Z,98425.33
2023-04-20T11:14:08.115Z,98425.02
2023-04-20T11:17:09.932Z,98422.27
2023-04-20T11:20:14.532Z,98427.30
2023-04-20T11:23:16.332Z,98430.30
2023-04-20T11:26:18.210Z,98430.83
2023-04-20T11:29:54.952Z,98434.26
2023-04-20T11:32:56.867Z,98436.01
2023-04-20T11:35:59.789Z,98438.52
2023-04-20T11:39:09.195Z,98433.36
2023-04-20T11:42:11.008Z,98426.52
2023-04-20T11:45:12.814Z,98429.11
2023-04-20T11:48:14.568Z,98434.39
2023-04-20T11:51:16.472Z,98435.64
2023-04-20T11:54:18.688Z,98428.20
2023-04-20T11:57:23.154Z,98425.74
2023-04-20T12:00:25.301Z,98423.59
2023-04-20T12:03:27.648Z,98420.98
2023-04-20T12:06:31.326Z,98423.24
2023-04-20T12:09:37.647Z,98421.56
2023-04-20T12:12:41.450Z,98417.05
2023-04-20T12:15:43.260Z,98417.86
2023-04-20T12:18:45.092Z,98416.48
2023-04-20T12:21:47.425Z,98413.16
2023-04-20T12:24:49.147Z,98417.68
2023-04-20T12:27:51.110Z,98414.09
2023-04-20T12:30:52.960Z,98417.91
2023-04-20T12:33:54.775Z,98414.46
2023-04-20T12:36:56.532Z,98415.46
2023-04-20T12:39:58.439Z,98412.70
2023-04-20T12:43:00.361Z,98409.04
2023-04-20T12:46:02.141Z,98412.95
2023-04-20T12:49:04.005Z,98407.67
2023-04-20T12:52:07.614Z,98405.66
2023-04-20T12:55:10.652Z,98405.93
2023-04-20T12:58:12.610Z,98399.75
2023-04-20T13:01:14.430Z,98403.38
2023-04-20T13:04:16.766Z,98400.84
2023-04-20T13:07:18.970Z,98400.79
2023-04-20T13:10:20.754Z,98398.71
2023-04-20T13:13:22.585Z,98394.96
2023-04-20T13:16:24.487Z,98391.52
2023-04-20T13:19:30.057Z,98391.84
2023-04-20T13:22:31.845Z,98391.45
2023-04-20T13:25:34.062Z,98392.34
2023-04-20T13:28:37.110Z,98398.37
2023-04-20T13:31:40.031Z,98395.16
2023-04-20T13:34:41.823Z,98390.95
2023-04-20T13:37:44.671Z,98396.17
2023-04-20T13:40:46.718Z,98398.14
2023-04-20T13:43:48.851Z,98395.52
2023-04-20T13:46:50.735Z,98397.73
2023-04-20T13:49:52.783Z,98402.45
2023-04-20T13:52:54.769Z,98398.24
2023-04-20T13:55:57.247Z,98392.08
2023-04-20T13:58:59.263Z,98395.23
2023-04-20T14:02:01.063Z,98389.34
2023-04-20T14:05:03.563Z,98390.71
2023-04-20T14:08:06.789Z,98385.25
2023-04-20T14:11:08.575Z,98384.85
2023-04-20T14:14:10.478Z,98377.95
2023-04-20T14:17:12.304Z,98378.83
2023-04-20T14:20:14.054Z,98377.88
2023-04-20T14:23:15.873Z,98381.48
2023-04-20T14:26:18.366Z,98378.36
2023-04-20T14:29:20.249Z,98380.98
2023-04-20T14:32:22.070Z,98376.27
2023-04-20T14:35:25.890Z,98374.36
2023-04-20T14:38:27.686Z,98371.58
2023-04-20T14:41:30.711Z,98372.95
2023-04-20T14:44:34.096Z,98370.27
2023-04-20T14:47:35.956Z,98367.21
2023-04-20T14:50:38.060Z,98359.20
2023-04-20T14:53:39.803Z,98360.43
2023-04-20T14:56:41.600Z,98360.22
2023-04-20T14:59:43.407Z,98361.71
2023-04-20T15:02:45.497Z,98361.88
2023-04-20T15:05:47.580Z,98362.64
2023-04-20T15:08:49.846Z,98366.67
2023-04-20T15:11:51.610Z,98365.98
2023-04-20T15:14:53.449Z,98359.12
2023-04-20T15:17:55.335Z,98361.93
2023-04-20T15:20:57.136Z,98365.86
2023-04-20T15:23:58.964Z,98365.27
2023-04-20T15:27:01.145Z,98368.16
2023-04-20T15:30:03.793Z,98371.64
2023-04-20T15:33:07.706Z,98373.13
2023-04-20T15:36:10.726Z,98377.30
2023-04-20T15:39:13.801Z,98375.01
2023-04-20T15:42:20.365Z,98375.91
2023-04-20T15:45:24.711Z,98377.00
2023-04-20T15:48:28.973Z,98375.11
2023-04-20T15:51:31.173Z,98373.05
2023-04-20T15:54:33.039Z,98376.36
2023-04-20T15:57:37.636Z,98376.52
2023-04-20T16:00:42.552Z,98375.31
2023-04-20T16:03:46.047Z,98368.70
2023-04-20T16:06:48.353Z,98369.09
2023-04-20T16:09:50.146Z,98368.48
2023-04-20T16:12:52.502Z,98367.96
2023-04-20T16:15:55.536Z,98372.10
2023-04-20T16:18:57.845Z,98378.41
2023-04-20T16:21:59.560Z,98376.73
2023-04-20T16:25:01.323Z,98381.58
2023-04-20T16:28:05.309Z,98384.95
2023-04-20T16:31:07.214Z,98387.83
2023-04-20T16:34:11.922Z,98388.10
2023-04-20T16:37:14.675Z,98387.45
2023-04-20T16:40:17.875Z,98386.35
2023-04-20T16:43:19.679Z,98385.52
2023-04-20T16:46:22.447Z,98387.04
2023-04-20T16:49:24.244Z,98387.86
2023-04-20T16:52:30.556Z,98391.30
2023-04-20T16:55:32.726Z,98391.73
2023-04-20T16:58:34.402Z,98388.52
2023-04-20T17:01:39.438Z,98388.95
2023-04-20T17:04:41.352Z,98385.90
2023-04-20T17:07:44.875Z,98386.79
2023-04-20T17:10:46.776Z,98390.64
2023-04-20T17:13:51.852Z,98390.65
2023-04-20T17:16:58.241Z,98392.83
2023-04-20T17:20:00.932Z,98389.48
2023-04-20T17:23:06.591Z,98393.08
2023-04-20T17:26:08.500Z,98390.39
2023-04-20T17:29:10.277Z,98389.27
2023-04-20T17:32:12.311Z,98389.73
2023-04-20T17:35:14.368Z,98392.58
2023-04-20T17:38:16.260Z,98395.59
2023-04-20T17:41:17.963Z,98393.70
2023-04-20T17:44:20.050Z,98399.54
2023-04-20T17:47:22.093Z,98398.45
2023-04-20T17:50:23.951Z,98395.68
2023-04-20T17:53:33.177Z,98397.77
2023-04-20T17:56:34.912Z,98399.90
2023-04-20T17:59:36.696Z,98398.88
2023-04-20T18:02:39.112Z,98400.00
2023-04-20T18:05:41.658Z,98396.75
2023-04-20T18:08:44.649Z,98399.98
2023-04-20T18:11:46.694Z,98399.80
2023-04-20T18:14:51.488Z,98401.33
2023-04-20T18:17:53.323Z,98401.38
2023-04-20T18:20:55.111Z,98403.77
2023-04-20T18:23:56.908Z,98404.92
2023-04-20T18:26:58.709Z,98406.15
2023-04-20T18:30:00.692Z,98409.72
2023-04-20T18:33:02.493Z,98413.01
2023-04-20T18:36:05.086Z,98411.86
2023-04-20T18:39:08.891Z,98410.49
2023-04-20T18:42:11.007Z,98409.77
2023-04-20T18:45:12.940Z,98411.46
2023-04-20T18:48:14.620Z,98413.97
2023-04-20T18:51:16.355Z,98412.92
2023-04-20T18:54:18.401Z,98414.39
2023-04-20T18:57:25.404Z,98417.12
2023-04-20T19:00:27.280Z,98414.08
2023-04-20T19:03:29.476Z,98418.53
2023-04-20T19:06:31.202Z,98415.95
2023-04-20T19:09:33.580Z,98415.73
2023-04-20T19:12:37.260Z,98414.02
2023-04-20T19:15:40.779Z,98413.95
2023-04-20T19:18:43.392Z,98416.66
2023-04-20T19:21:45.097Z,98413.30
2023-04-20T19:24:46.835Z,98411.39
2023-04-20T19:27:49.170Z,98410.87
2023-04-20T19:30:51.108Z,98408.30
2023-04-20T19:33:53.604Z,98409.73
2023-04-20T19:36:56.014Z,98411.02
2023-04-20T19:39:58.476Z,98406.39
2023-04-20T19:43:00.205Z,98407.50
2023-04-20T19:46:02.035Z,98406.98
2023-04-20T19:49:04.006Z,98406.22
2023-04-20T19:52:05.894Z,98405.08
2023-04-20T19:55:08.145Z,98408.95
2023-04-20T19:58:10.531Z,98411.66
2023-04-20T20:01:12.511Z,98410.03
2023-04-20T20:04:14.662Z,98406.36
2023-04-20T20:07:17.347Z,98406.30
2023-04-20T20:10:20.393Z,98407.34
2023-04-20T20:13:22.331Z,98404.52
2023-04-20T20:16:24.271Z,98406.83
2023-04-20T20:19:26.836Z,98405.25
2023-04-20T20:22:28.683Z,98401.65
2023-04-20T20:25:30.572Z,98397.34
2023-04-20T20:28:32.880Z,98394.73
2023-04-20T20:31:34.701Z,98398.52
2023-04-20T20:34:36.369Z,98398.07
2023-04-20T20:37:39.585Z,98400.91
2023-04-20T20:40:41.558Z,98402.64
2023-04-20T20:43:43.293Z,98397.63
2023-04-20T20:46:45.042Z,98401.23
2023-04-20T20:49:46.708Z,98398.51
2023-04-20T20:52:49.181Z,98401.02
2023-04-20T20:55:53.375Z,98398.98
2023-04-20T20:58:55.103Z,98396.48
2023-04-20T21:01:56.755Z,98392.94
2023-04-20T21:04:58.500Z,98394.66
2023-04-20T21:08:00.151Z,98394.83
2023-04-20T21:11:01.912Z,98396.33
2023-04-20T21:14:03.656Z,98397.83
2023-04-20T21:17:05.407Z,98398.30
2023-04-20T21:20:08.598Z,98397.27
2023-04-20T21:23:10.302Z,98394.73
2023-04-20T21:26:12.547Z,98398.42
2023-04-20T21:29:14.276Z,98400.86
2023-04-20T21:32:16.095Z,98396.70
2023-04-20T21:35:17.928Z,98398.98
2023-04-20T21:38:19.684Z,98398.50
2023-04-20T21:41:21.498Z,98398.40
2023-04-20T21:44:23.280Z,98393.95
2023-04-20T21:47:25.317Z,98391.42
2023-04-20T21:50:27.982Z,98395.42
2023-04-20T21:53:29.674Z,98393.70
2023-04-20T21:56:31.398Z,98399.18
2023-04-20T21:59:33.138Z,98399.98
2023-04-20T22:02:35.050Z,98401.31
2023-04-20T22:05:37.329Z,98403.35
2023-04-20T22:08:39.120Z,98400.98
2023-04-20T22:11:40.886Z,98402.48
2023-04-20T22:14:42.586Z,98401.52
2023-04-20T22:17:47.148Z,98399.56
2023-04-20T22:20:49.184Z,98407.42
2023-04-20T22:23:51.576Z,98405.69
2023-04-20T22:26:53.180Z,98403.95
2023-04-20T22:29:55.532Z,98400.02
2023-04-20T22:32:57.232Z,98400.71
2023-04-20T22:35:59.006Z,98401.35
2023-04-20T22:39:00.763Z,98404.55
2023-04-20T22:42:02.448Z,98408.17
2023-04-20T22:45:04.723Z,98410.44
2023-04-20T22:48:06.557Z,98413.65
2023-04-20T22:51:08.332Z,98415.85
2023-04-20T22:54:10.109Z,98410.81
2023-04-20T22:57:11.774Z,98407.52
2023-04-20T23:00:14.068Z,98408.05
2023-04-20T23:03:16.006Z,98407.11
2023-04-20T23:06:18.104Z,98402.08
2023-04-20T23:09:20.079Z,98404.65
2023-04-20T23:12:21.969Z,98407.80
2023-04-20T23:15:23.667Z,98403.23
2023-04-20T23:18:25.358Z,98403.46
2023-04-20T23:21:28.069Z,98400.72
2023-04-20T23:24:29.901Z,98403.23
2023-04-20T23:27:31.580Z,98403.39
2023-04-20T23:30:33.279Z,98402.68
2023-04-20T23:33:35.020Z,98400.95
2023-04-20T23:36:36.769Z,98401.35
2023-04-20T23:39:38.567Z,98399.23
2023-04-20T23:42:40.294Z,98391.05
2023-04-20T23:45:42.057Z,98388.48
2023-04-20T23:48:44.075Z,98386.42
2023-04-20T23:51:45.724Z,98387.20
2023-04-20T23:54:47.436Z,98383.83
2023-04-20T23:57:49.144Z,98384.84
